createdAt,value
2023-03-26T00:02:00.479Z,96536.00
2023-03-26T00:04:28.051Z,96534.00
2023-03-26T00:06:55.840Z,96519.00
2023-03-26T00:09:23.057Z,96525.00
2023-03-26T00:11:50.229Z,96531.00
2023-03-26T00:14:17.907Z,96531.00
2023-03-26T00:16:45.579Z,96528.00
2023-03-26T00:19:12.814Z,96532.00
2023-03-26T00:21:40.032Z,96528.00
2023-03-26T00:24:08.763Z,96528.00
2023-03-26T00:26:37.537Z,96530.00
2023-03-26T00:29:04.802Z,96524.00
2023-03-26T00:31:31.940Z,96520.00
2023-03-26T00:33:59.510Z,96519.00
2023-03-26T00:36:26.902Z,96518.00
2023-03-26T00:38:54.465Z,96522.00
2023-03-26T00:41:25.640Z,96525.00
2023-03-26T00:43:56.008Z,96522.00
2023-03-26T00:46:23.827Z,96509.00
2023-03-26T00:48:50.971Z,96518.00
2023-03-26T00:51:18.542Z,96510.00
2023-03-26T00:53:46.494Z,96515.00
2023-03-26T00:56:13.739Z,96508.00
2023-03-26T00:58:41.339Z,96498.00
2023-03-26T01:01:10.114Z,96508.00
2023-03-26T01:03:38.390Z,96496.00
2023-03-26T01:06:11.527Z,96494.00
2023-03-26T01:08:39.918Z,96498.00
2023-03-26T01:11:14.238Z,96486.00
2023-03-26T01:13:48.699Z,96480.00
2023-03-26T01:16:20.416Z,96478.00
2023-03-26T01:18:48.783Z,96464.00
2023-03-26T01:21:22.464Z,96458.00
2023-03-26T01:24:09.821Z,96463.00
2023-03-26T01:26:43.552Z,96456.00
2023-03-26T01:29:13.026Z,96447.00
2023-03-26T01:32:03.501Z,96437.00
2023-03-26T01:34:49.563Z,96429.00
2023-03-26T01:37:30.456Z,96419.00
2023-03-26T01:39:57.681Z,96400.00
2023-03-26T01:42:29.930Z,96398.00
2023-03-26T01:44:58.057Z,96388.00
2023-03-26T01:47:25.254Z,96383.00
2023-03-26T01:49:52.397Z,96379.00
2023-03-26T01:58:56.191Z,96343.00
2023-03-26T02:08:16.181Z,96318.00
2023-03-26T02:10:58.318Z,96312.00
2023-03-26T02:13:46.130Z,96310.00
2023-03-26T02:16:23.927Z,96315.00
2023-03-26T02:19:01.401Z,96310.00
2023-03-26T02:21:34.323Z,96312.00
2023-03-26T02:24:05.262Z,96309.00
2023-03-26T02:26:44.202Z,96292.00
2023-03-26T02:29:21.726Z,96292.00
2023-03-26T02:31:56.249Z,96290.00
2023-03-26T02:34:30.412Z,96290.00
2023-03-26T02:36:57.708Z,96283.00
2023-03-26T02:39:25.039Z,96287.00
2023-03-26T02:41:52.160Z,96289.00
2023-03-26T02:44:19.267Z,96272.00
2023-03-26T02:46:46.415Z,96257.00
2023-03-26T02:49:13.520Z,96248.00
2023-03-26T02:51:40.723Z,96247.00
2023-03-26T02:54:07.860Z,96248.00
2023-03-26T02:56:35.193Z,96243.00
2023-03-26T02:59:02.349Z,96253.00
2023-03-26T03:01:30.869Z,96248.00
2023-03-26T03:03:58.410Z,96228.00
2023-03-26T03:06:26.496Z,96211.00
2023-03-26T03:08:54.017Z,96210.00
2023-03-26T03:11:24.982Z,96222.00
2023-03-26T03:13:52.521Z,96218.00
2023-03-26T03:16:20.132Z,96221.00
2023-03-26T03:18:54.144Z,96211.00
2023-03-26T03:21:21.863Z,96204.00
2023-03-26T03:23:49.032Z,96204.00
2023-03-26T03:26:17.405Z,96206.00
2023-03-26T03:28:45.244Z,96190.00
2023-03-26T03:31:12.394Z,96177.00
2023-03-26T03:33:41.379Z,96165.00
2023-03-26T03:36:20.603Z,96148.00
2023-03-26T03:38:49.205Z,96149.00
2023-03-26T03:41:18.394Z,96149.00
2023-03-26T03:43:45.669Z,96148.00
2023-03-26T03:46:12.957Z,96142.00
2023-03-26T03:48:40.124Z,96137.00
2023-03-26T03:51:07.250Z,96143.00
2023-03-26T03:53:37.110Z,96147.00
2023-03-26T03:56:10.004Z,96150.00
2023-03-26T03:58:37.291Z,96143.00
2023-03-26T04:01:04.668Z,96148.00
2023-03-26T04:03:33.635Z,96139.00
2023-03-26T04:06:01.632Z,96127.00
2023-03-26T04:08:28.731Z,96133.00
2023-03-26T04:10:55.908Z,96131.00
2023-03-26T04:13:23.046Z,96128.00
2023-03-26T04:15:50.293Z,96120.00
2023-03-26T04:18:17.409Z,96107.00
2023-03-26T04:20:47.648Z,96103.00
2023-03-26T04:23:18.175Z,96097.00
2023-03-26T04:25:48.325Z,96089.00
2023-03-26T04:28:35.748Z,96084.00
2023-03-26T04:31:03.818Z,96073.00
2023-03-26T04:33:31.790Z,96067.00
2023-03-26T04:36:02.606Z,96059.00
2023-03-26T04:38:30.274Z,96053.00
2023-03-26T04:41:00.519Z,96048.00
2023-03-26T04:43:30.241Z,96035.00
2023-03-26T04:45:57.437Z,96027.00
2023-03-26T04:48:24.698Z,96022.00
2023-03-26T04:50:51.821Z,96029.00
2023-03-26T04:53:19.357Z,96024.00
2023-03-26T04:56:05.455Z,96024.00
2023-03-26T04:58:33.094Z,96021.00
2023-03-26T05:01:01.172Z,96012.00
2023-03-26T05:03:41.093Z,96015.00
2023-03-26T05:06:09.621Z,96005.00
2023-03-26T05:08:36.738Z,95998.00
2023-03-26T05:11:07.390Z,95996.00
2023-03-26T05:13:34.547Z,95991.00
2023-03-26T05:16:01.680Z,95990.00
2023-03-26T05:18:28.754Z,95991.00
2023-03-26T05:20:57.406Z,95983.00
2023-03-26T05:23:24.645Z,95987.00
2023-03-26T05:25:51.981Z,95992.00
2023-03-26T05:28:20.671Z,95988.00
2023-03-26T05:30:47.845Z,95979.00
2023-03-26T05:33:16.321Z,95981.00
2023-03-26T05:35:43.605Z,95978.00
2023-03-26T05:38:10.886Z,95972.00
2023-03-26T05:40:37.988Z,95953.00
2023-03-26T05:43:05.189Z,95949.00
2023-03-26T05:45:32.271Z,95940.00
2023-03-26T05:47:59.394Z,95938.00
2023-03-26T05:50:26.501Z,95926.00
2023-03-26T05:52:53.578Z,95926.00
2023-03-26T05:55:21.967Z,95921.00
2023-03-26T05:57:49.097Z,95910.00
2023-03-26T06:00:16.378Z,95907.00
2023-03-26T06:02:44.134Z,95900.00
2023-03-26T06:05:12.426Z,95907.00
2023-03-26T06:07:39.582Z,95892.00
2023-03-26T06:10:06.940Z,95888.00
2023-03-26T06:12:34.051Z,95872.00
2023-03-26T06:15:01.219Z,95870.00
2023-03-26T06:17:28.340Z,95862.00
2023-03-26T06:19:55.426Z,95861.00
2023-03-26T06:22:22.551Z,95861.00
2023-03-26T06:24:50.241Z,95844.00
2023-03-26T06:27:17.366Z,95848.00
2023-03-26T06:29:44.446Z,95860.00
2023-03-26T06:32:19.811Z,95849.00
2023-03-26T06:34:47.668Z,95872.00
2023-03-26T06:37:15.507Z,95833.00
2023-03-26T06:39:42.630Z,95852.00
2023-03-26T06:42:09.712Z,95854.00
2023-03-26T06:44:36.794Z,95828.00
2023-03-26T06:47:03.889Z,95845.00
2023-03-26T06:49:31.396Z,95833.00
2023-03-26T06:51:58.646Z,95833.00
2023-03-26T06:54:27.527Z,95839.00
2023-03-26T06:56:54.819Z,95827.00
2023-03-26T06:59:22.091Z,95826.00
2023-03-26T07:01:49.213Z,95836.00
2023-03-26T07:04:16.362Z,95837.00
2023-03-26T07:06:43.490Z,95837.00
2023-03-26T07:09:10.586Z,95829.00
2023-03-26T07:11:37.734Z,95827.00
2023-03-26T07:14:04.861Z,95835.00
2023-03-26T07:16:32.057Z,95818.00
2023-03-26T07:18:59.161Z,95806.00
2023-03-26T07:21:26.464Z,95817.00
2023-03-26T07:23:55.093Z,95815.00
2023-03-26T07:26:31.463Z,95818.00
2023-03-26T07:29:07.735Z,95822.00
2023-03-26T07:31:49.951Z,95823.00
2023-03-26T07:34:17.047Z,95822.00
2023-03-26T07:36:48.346Z,95837.00
2023-03-26T07:39:15.556Z,95830.00
2023-03-26T07:41:42.684Z,95832.00
2023-03-26T07:44:22.473Z,95838.00
2023-03-26T07:46:53.264Z,95831.00
2023-03-26T07:49:20.553Z,95840.00
2023-03-26T07:51:48.142Z,95836.00
2023-03-26T07:54:15.395Z,95835.00
2023-03-26T07:57:02.024Z,95837.00
2023-03-26T07:59:35.569Z,95839.00
2023-03-26T08:02:25.115Z,95828.00
2023-03-26T08:05:18.837Z,95827.00
2023-03-26T08:07:55.323Z,95836.00
2023-03-26T08:10:24.064Z,95832.00
2023-03-26T08:12:53.536Z,95838.00
2023-03-26T08:15:29.311Z,95847.00
2023-03-26T08:18:02.632Z,95852.00
2023-03-26T08:20:38.141Z,95857.00
2023-03-26T08:23:12.155Z,95847.00
2023-03-26T08:25:54.543Z,95862.00
2023-03-26T08:28:27.813Z,95861.00
2023-03-26T08:30:55.335Z,95867.00
2023-03-26T08:33:22.958Z,95871.00
2023-03-26T08:35:50.126Z,95865.00
2023-03-26T08:38:18.315Z,95857.00
2023-03-26T08:40:48.476Z,95863.00
2023-03-26T08:43:34.440Z,95863.00
2023-03-26T08:46:21.561Z,95864.00
2023-03-26T08:49:07.355Z,95864.00
2023-03-26T08:52:00.206Z,95854.00
2023-03-26T08:54:34.547Z,95854.00
2023-03-26T08:57:01.637Z,95865.00
2023-03-26T08:59:34.855Z,95856.00
2023-03-26T09:02:08.454Z,95860.00
2023-03-26T09:04:50.901Z,95858.00
2023-03-26T09:07:28.711Z,95866.00
2023-03-26T09:10:06.915Z,95853.00
2023-03-26T09:12:50.338Z,95854.00
2023-03-26T09:15:35.981Z,95859.00
2023-03-26T09:18:21.476Z,95858.00
2023-03-26T09:21:14.830Z,95853.00
2023-03-26T09:23:51.837Z,95850.00
2023-03-26T09:26:28.943Z,95840.00
2023-03-26T09:28:56.081Z,95837.00
2023-03-26T09:31:34.352Z,95845.00
2023-03-26T09:34:12.708Z,95827.00
2023-03-26T09:36:58.729Z,95824.00
2023-03-26T09:39:39.024Z,95827.00
2023-03-26T09:42:24.461Z,95821.00
2023-03-26T09:45:03.752Z,95820.00
2023-03-26T09:47:43.186Z,95831.00
2023-03-26T09:50:22.758Z,95844.00
2023-03-26T09:53:08.623Z,95842.00
2023-03-26T09:55:35.817Z,95818.00
2023-03-26T09:58:06.145Z,95852.00
2023-03-26T10:00:38.814Z,95865.00
2023-03-26T10:03:26.415Z,95870.00
2023-03-26T10:06:02.915Z,95875.00
2023-03-26T10:08:32.538Z,95886.00
2023-03-26T10:11:02.936Z,95887.00
2023-03-26T10:13:32.515Z,95894.00
2023-03-26T10:16:06.052Z,95887.00
2023-03-26T10:18:39.558Z,95888.00
2023-03-26T10:21:09.789Z,95886.00
2023-03-26T10:23:39.850Z,95900.00
2023-03-26T10:26:14.344Z,95897.00
2023-03-26T10:28:41.440Z,95901.00
2023-03-26T10:31:19.220Z,95897.00
2023-03-26T10:33:52.598Z,95882.00
2023-03-26T10:36:26.827Z,95886.00
2023-03-26T10:39:03.668Z,95887.00
2023-03-26T10:41:38.707Z,95873.00
2023-03-26T10:44:15.018Z,95860.00
2023-03-26T10:46:42.196Z,95866.00
2023-03-26T10:49:18.574Z,95865.00
2023-03-26T10:51:48.670Z,95865.00
2023-03-26T10:54:21.709Z,95863.00
2023-03-26T10:56:49.879Z,95858.00
2023-03-26T10:59:17.451Z,95850.00
2023-03-26T11:02:03.616Z,95847.00
2023-03-26T11:04:30.826Z,95846.00
2023-03-26T11:07:13.298Z,95843.00
2023-03-26T11:09:43.550Z,95840.00
2023-03-26T11:12:26.836Z,95853.00
2023-03-26T11:15:01.447Z,95844.00
2023-03-26T11:17:43.583Z,95833.00
2023-03-26T11:20:13.586Z,95826.00
2023-03-26T11:23:03.829Z,95828.00
2023-03-26T11:25:49.732Z,95824.00
2023-03-26T11:28:23.867Z,95822.00
2023-03-26T11:31:16.087Z,95817.00
2023-03-26T11:34:18.448Z,95810.00
2023-03-26T11:37:15.088Z,95808.00
2023-03-26T11:40:14.225Z,95816.00
2023-03-26T11:43:04.987Z,95817.00
2023-03-26T11:49:16.708Z,95817.00
2023-03-26T11:52:15.745Z,95818.00
2023-03-26T11:55:13.059Z,95813.00
2023-03-26T11:58:13.332Z,95802.00
2023-03-26T12:00:40.434Z,95794.00
2023-03-26T12:03:07.557Z,95788.00
2023-03-26T12:05:36.715Z,95791.00
2023-03-26T12:08:11.209Z,95787.00
2023-03-26T12:10:39.060Z,95766.00
2023-03-26T12:13:21.620Z,95761.00
2023-03-26T12:15:48.701Z,95775.00
2023-03-26T12:18:26.047Z,95799.00
2023-03-26T12:21:22.674Z,95800.00
2023-03-26T12:23:58.641Z,95794.00
2023-03-26T12:26:34.833Z,95800.00
2023-03-26T12:29:07.312Z,95798.00
2023-03-26T12:31:46.868Z,95798.00
2023-03-26T12:34:15.388Z,95794.00
2023-03-26T12:36:49.068Z,95793.00
2023-03-26T12:40:08.827Z,95787.00
2023-03-26T12:44:50.754Z,95765.00
2023-03-26T12:45:20.014Z,95775.00
2023-03-26T12:48:01.836Z,95783.00
2023-03-26T12:50:40.709Z,95765.00
2023-03-26T12:53:26.461Z,95763.00
2023-03-26T12:56:01.294Z,95755.00
2023-03-26T12:58:32.310Z,95750.00
2023-03-26T13:01:02.977Z,95755.00
2023-03-26T13:03:31.184Z,95762.00
2023-03-26T13:06:04.212Z,95765.00
2023-03-26T13:08:50.201Z,95741.00
2023-03-26T13:11:20.789Z,95739.00
2023-03-26T13:13:56.347Z,95750.00
2023-03-26T13:16:25.062Z,95741.00
2023-03-26T13:18:58.169Z,95744.00
2023-03-26T13:21:28.539Z,95747.00
2023-03-26T13:24:01.738Z,95739.00
2023-03-26T13:26:47.548Z,95749.00
2023-03-26T13:29:24.188Z,95750.00
2023-03-26T13:31:54.337Z,95748.00
2023-03-26T13:34:22.559Z,95744.00
2023-03-26T13:37:12.803Z,95731.00
2023-03-26T13:39:56.954Z,95734.00
2023-03-26T13:42:42.806Z,95740.00
2023-03-26T13:45:13.151Z,95735.00
2023-03-26T13:47:42.634Z,95721.00
2023-03-26T13:50:21.838Z,95708.00
2023-03-26T13:52:52.272Z,95703.00
2023-03-26T13:55:22.429Z,95716.00
2023-03-26T13:57:53.435Z,95698.00
2023-03-26T14:00:26.590Z,95702.00
2023-03-26T14:02:56.594Z,95752.00
2023-03-26T14:05:25.766Z,95748.00
2023-03-26T14:07:53.396Z,95821.00
2023-03-26T14:10:22.353Z,95853.00
2023-03-26T14:12:52.373Z,95862.00
2023-03-26T14:15:21.999Z,95864.00
2023-03-26T14:18:03.775Z,95874.00
2023-03-26T14:20:40.198Z,95892.00
2023-03-26T14:23:17.991Z,95887.00
2023-03-26T14:25:48.147Z,95878.00
2023-03-26T14:28:26.488Z,95865.00
2023-03-26T14:30:56.557Z,95863.00
2023-03-26T14:33:34.060Z,95838.00
2023-03-26T14:36:07.390Z,95836.00
2023-03-26T14:38:34.521Z,95850.00
2023-03-26T14:41:06.355Z,95854.00
2023-03-26T14:43:44.217Z,95846.00
2023-03-26T14:46:14.443Z,95845.00
2023-03-26T14:48:48.239Z,95854.00
2023-03-26T14:51:24.816Z,95865.00
2023-03-26T14:53:52.775Z,95873.00
2023-03-26T14:56:30.152Z,95872.00
2023-03-26T14:59:03.622Z,95862.00
2023-03-26T15:01:40.127Z,95862.00
2023-03-26T15:04:13.333Z,95852.00
2023-03-26T15:06:41.049Z,95858.00
2023-03-26T15:09:26.978Z,95843.00
2023-03-26T15:12:12.685Z,95847.00
2023-03-26T15:14:41.695Z,95845.00
2023-03-26T15:17:09.549Z,95846.00
2023-03-26T15:19:36.666Z,95836.00
2023-03-26T15:22:04.312Z,95840.00
2023-03-26T15:24:31.400Z,95825.00
2023-03-26T15:27:08.275Z,95833.00
2023-03-26T15:29:42.260Z,95853.00
2023-03-26T15:32:16.176Z,95838.00
2023-03-26T15:34:43.233Z,95835.00
2023-03-26T15:37:27.351Z,95834.00
2023-03-26T15:40:12.746Z,95833.00
2023-03-26T15:42:55.185Z,95837.00
2023-03-26T15:45:42.170Z,95828.00
2023-03-26T15:48:12.612Z,95832.00
2023-03-26T15:50:58.798Z,95840.00
2023-03-26T15:53:44.731Z,95830.00
2023-03-26T15:56:11.824Z,95830.00
2023-03-26T15:58:50.766Z,95823.00
2023-03-26T16:01:24.006Z,95823.00
2023-03-26T16:03:54.621Z,95826.00
2023-03-26T16:06:30.865Z,95827.00
2023-03-26T16:09:07.955Z,95823.00
2023-03-26T16:11:45.672Z,95837.00
2023-03-26T16:14:31.611Z,95826.00
2023-03-26T16:16:59.197Z,95836.00
2023-03-26T16:19:32.507Z,95834.00
2023-03-26T16:22:05.774Z,95842.00
2023-03-26T16:24:37.129Z,95836.00
2023-03-26T16:27:13.352Z,95843.00
2023-03-26T16:29:59.627Z,95854.00
2023-03-26T16:32:28.644Z,95852.00
2023-03-26T16:35:00.301Z,95849.00
2023-03-26T16:37:36.009Z,95859.00
2023-03-26T16:40:18.606Z,95849.00
2023-03-26T16:43:04.255Z,95846.00
2023-03-26T16:45:37.122Z,95853.00
2023-03-26T16:48:07.315Z,95856.00
2023-03-26T16:50:34.994Z,95852.00
2023-03-26T16:53:15.579Z,95842.00
2023-03-26T16:55:54.934Z,95858.00
2023-03-26T16:58:34.319Z,95850.00
2023-03-26T17:01:07.535Z,95856.00
2023-03-26T17:03:53.160Z,95848.00
2023-03-26T17:06:20.891Z,95848.00
2023-03-26T17:08:53.267Z,95859.00
2023-03-26T17:11:22.256Z,95868.00
2023-03-26T17:13:49.483Z,95882.00
2023-03-26T17:16:19.793Z,95914.00
2023-03-26T17:19:08.690Z,95940.00
2023-03-26T17:21:55.474Z,95936.00
2023-03-26T17:24:26.585Z,95923.00
2023-03-26T17:27:01.614Z,95922.00
2023-03-26T17:29:36.474Z,95936.00
2023-03-26T17:32:04.573Z,95946.00
2023-03-26T17:34:37.753Z,95936.00
2023-03-26T17:37:05.733Z,95904.00
2023-03-26T17:39:38.591Z,95916.00
2023-03-26T17:42:08.745Z,95937.00
2023-03-26T17:44:35.800Z,95933.00
2023-03-26T17:47:02.923Z,95936.00
2023-03-26T17:49:31.335Z,95933.00
2023-03-26T17:51:59.489Z,95928.00
2023-03-26T17:54:36.713Z,95928.00
2023-03-26T17:57:06.046Z,95922.00
2023-03-26T17:59:33.325Z,95909.00
2023-03-26T18:02:01.217Z,95916.00
2023-03-26T18:04:38.013Z,95908.00
2023-03-26T18:07:25.083Z,95902.00
2023-03-26T18:10:12.790Z,95905.00
2023-03-26T18:12:50.872Z,95923.00
2023-03-26T18:15:38.239Z,95906.00
2023-03-26T18:18:13.765Z,95903.00
2023-03-26T18:20:43.782Z,95908.00
2023-03-26T18:23:11.409Z,95905.00
2023-03-26T18:25:40.878Z,95907.00
2023-03-26T18:28:10.298Z,95902.00
2023-03-26T18:30:44.692Z,95901.00
2023-03-26T18:33:12.586Z,95901.00
2023-03-26T18:35:41.519Z,95895.00
2023-03-26T18:38:12.945Z,95894.00
2023-03-26T18:40:40.833Z,95895.00
2023-03-26T18:43:19.612Z,95892.00
2023-03-26T18:45:55.966Z,95884.00
2023-03-26T18:48:23.509Z,95891.00
2023-03-26T18:50:54.949Z,95886.00
2023-03-26T18:53:23.406Z,95886.00
2023-03-26T18:55:51.193Z,95890.00
2023-03-26T18:58:35.502Z,95885.00
2023-03-26T19:01:03.911Z,95890.00
2023-03-26T19:03:32.110Z,95891.00
2023-03-26T19:05:59.546Z,95886.00
2023-03-26T19:08:26.659Z,95881.00
2023-03-26T19:10:54.112Z,95883.00
2023-03-26T19:13:21.544Z,95872.00
2023-03-26T19:15:49.879Z,95881.00
2023-03-26T19:18:17.994Z,95869.00
2023-03-26T19:20:50.034Z,95861.00
2023-03-26T19:23:21.602Z,95864.00
2023-03-26T19:25:59.673Z,95860.00
2023-03-26T19:28:42.843Z,95869.00
2023-03-26T19:31:10.057Z,95866.00
2023-03-26T19:33:37.779Z,95882.00
2023-03-26T19:36:06.110Z,95864.00
2023-03-26T19:38:44.242Z,95864.00
2023-03-26T19:41:24.932Z,95848.00
2023-03-26T19:43:56.181Z,95840.00
2023-03-26T19:46:23.642Z,95851.00
2023-03-26T19:48:52.432Z,95849.00
2023-03-26T19:51:20.009Z,95859.00
2023-03-26T19:53:55.016Z,95850.00
2023-03-26T19:56:22.722Z,95855.00
2023-03-26T19:58:52.897Z,95859.00
2023-03-26T20:01:21.026Z,95857.00
2023-03-26T20:03:49.205Z,95854.00
2023-03-26T20:06:17.413Z,95854.00
2023-03-26T20:08:44.601Z,95858.00
2023-03-26T20:11:33.403Z,95872.00
2023-03-26T20:14:01.288Z,95873.00
2023-03-26T20:16:29.417Z,95878.00
2023-03-26T20:18:57.227Z,95883.00
2023-03-26T20:21:24.884Z,95882.00
2023-03-26T20:23:53.656Z,95893.00
2023-03-26T20:26:21.691Z,95902.00
2023-03-26T20:28:53.291Z,95903.00
2023-03-26T20:31:22.294Z,95910.00
2023-03-26T20:33:49.857Z,95913.00
2023-03-26T20:36:33.438Z,95909.00
2023-03-26T20:39:05.630Z,95916.00
2023-03-26T20:41:33.682Z,95920.00
2023-03-26T20:44:01.031Z,95913.00
2023-03-26T20:46:31.050Z,95913.00
2023-03-26T20:48:59.866Z,95907.00
2023-03-26T20:51:28.247Z,95913.00
2023-03-26T20:53:56.169Z,95907.00
2023-03-26T20:56:23.476Z,95919.00
2023-03-26T20:59:03.512Z,95928.00
2023-03-26T21:01:35.465Z,95933.00
2023-03-26T21:04:04.242Z,95926.00
2023-03-26T21:06:31.588Z,95922.00
2023-03-26T21:08:58.886Z,95927.00
2023-03-26T21:11:29.648Z,95928.00
2023-03-26T21:14:15.656Z,95930.00
2023-03-26T21:16:42.804Z,95931.00
2023-03-26T21:19:13.025Z,95942.00
2023-03-26T21:21:47.416Z,95934.00
2023-03-26T21:24:17.965Z,95939.00
2023-03-26T21:26:50.480Z,95933.00
2023-03-26T21:29:17.822Z,95933.00
2023-03-26T21:31:46.570Z,95933.00
2023-03-26T21:34:13.977Z,95934.00
2023-03-26T21:36:41.944Z,95932.00
2023-03-26T21:39:10.902Z,95925.00
2023-03-26T21:41:43.595Z,95919.00
2023-03-26T21:44:10.883Z,95920.00
2023-03-26T21:46:40.716Z,95924.00
2023-03-26T21:49:07.877Z,95921.00
2023-03-26T21:51:35.384Z,95926.00
2023-03-26T21:54:02.572Z,95925.00
2023-03-26T21:56:45.548Z,95928.00
2023-03-26T21:59:25.602Z,95934.00
2023-03-26T22:01:55.783Z,95937.00
2023-03-26T22:04:46.156Z,95942.00
2023-03-26T22:07:18.182Z,95926.00
2023-03-26T22:09:45.464Z,95929.00
2023-03-26T22:12:12.623Z,95934.00
2023-03-26T22:14:40.496Z,95940.00
2023-03-26T22:17:07.633Z,95937.00
2023-03-26T22:19:34.780Z,95936.00
2023-03-26T22:22:02.078Z,95940.00
2023-03-26T22:24:29.266Z,95951.00
2023-03-26T22:26:56.512Z,95946.00
2023-03-26T22:29:23.618Z,95957.00
2023-03-26T22:31:51.110Z,95960.00
2023-03-26T22:34:19.529Z,95953.00
2023-03-26T22:36:46.648Z,95963.00
2023-03-26T22:39:13.757Z,95965.00
2023-03-26T22:41:40.892Z,95965.00
2023-03-26T22:44:19.216Z,95984.00
2023-03-26T22:46:49.293Z,95981.00
2023-03-26T22:49:17.242Z,95989.00
2023-03-26T22:51:44.571Z,95985.00
2023-03-26T22:54:11.765Z,95988.00
2023-03-26T22:56:41.641Z,95990.00
2023-03-26T22:59:13.988Z,95995.00
2023-03-26T23:01:44.907Z,96002.00
2023-03-26T23:04:31.210Z,95993.00
2023-03-26T23:07:02.327Z,96008.00
2023-03-26T23:09:29.638Z,96008.00
2023-03-26T23:12:00.520Z,96009.00
2023-03-26T23:14:28.693Z,96002.00
2023-03-26T23:16:55.806Z,96011.00
2023-03-26T23:19:24.818Z,96015.00
2023-03-26T23:21:52.343Z,96021.00
2023-03-26T23:24:19.716Z,96016.00
2023-03-26T23:29:17.347Z,96031.00
2023-03-26T23:31:44.532Z,96026.00
2023-03-26T23:34:13.447Z,96035.00
2023-03-26T23:36:41.834Z,96035.00
2023-03-26T23:39:09.297Z,96048.00
2023-03-26T23:41:36.777Z,96059.00
2023-03-26T23:44:03.998Z,96063.00
2023-03-26T23:46:34.514Z,96065.00
2023-03-26T23:49:04.888Z,96069.00
2023-03-26T23:51:32.156Z,96073.00
2023-03-26T23:54:00.066Z,96074.00
2023-03-26T23:56:30.385Z,96090.00
2023-03-26T23:58:58.128Z,96087.00
